sensor_id;sensor_type;location;lat;lon;timestamp;P1;durP1;ratioP1;P2;durP2;ratioP2
36715;SDS011;22699;51.034;3.730;2023-06-26T00:02:21;5.50;;;3.30;;
36715;SDS011;22699;51.034;3.730;2023-06-26T00:04:47;5.45;;;3.15;;
36715;SDS011;22699;51.034;3.730;2023-06-26T00:07:14;5.80;;;3.40;;
36715;SDS011;22699;51.034;3.730;2023-06-26T00:09:39;7.00;;;3.75;;
36715;SDS011;22699;51.034;3.730;2023-06-26T00:12:06;5.30;;;3.72;;
36715;SDS011;22699;51.034;3.730;2023-06-26T00:14:31;5.40;;;3.75;;
36715;SDS011;22699;51.034;3.730;2023-06-26T00:16:57;8.93;;;3.80;;
36715;SDS011;22699;51.034;3.730;2023-06-26T00:19:22;9.30;;;4.35;;
36715;SDS011;22699;51.034;3.730;2023-06-26T00:21:48;6.68;;;3.78;;
36715;SDS011;22699;51.034;3.730;2023-06-26T00:24:14;7.25;;;3.80;;
36715;SDS011;22699;51.034;3.730;2023-06-26T00:26:40;5.47;;;3.33;;
36715;SDS011;22699;51.034;3.730;2023-06-26T00:29:06;5.25;;;3.30;;
36715;SDS011;22699;51.034;3.730;2023-06-26T00:31:31;9.02;;;4.03;;
36715;SDS011;22699;51.034;3.730;2023-06-26T00:33:57;7.75;;;4.18;;
36715;SDS011;22699;51.034;3.730;2023-06-26T00:36:22;6.35;;;3.30;;
36715;SDS011;22699;51.034;3.730;2023-06-26T00:38:48;7.93;;;3.85;;
36715;SDS011;22699;51.034;3.730;2023-06-26T00:41:14;5.95;;;3.20;;
36715;SDS011;22699;51.034;3.730;2023-06-26T00:43:40;6.07;;;3.88;;
36715;SDS011;22699;51.034;3.730;2023-06-26T00:46:08;6.72;;;3.65;;
36715;SDS011;22699;51.034;3.730;2023-06-26T00:48:36;5.80;;;3.30;;
36715;SDS011;22699;51.034;3.730;2023-06-26T00:51:02;7.72;;;3.85;;
36715;SDS011;22699;51.034;3.730;2023-06-26T00:53:28;4.70;;;3.03;;
36715;SDS011;22699;51.034;3.730;2023-06-26T00:55:55;5.18;;;2.95;;
36715;SDS011;22699;51.034;3.730;2023-06-26T00:58:24;8.93;;;3.63;;
36715;SDS011;22699;51.034;3.730;2023-06-26T01:00:50;8.80;;;3.90;;
36715;SDS011;22699;51.034;3.730;2023-06-26T01:03:16;6.85;;;3.55;;
36715;SDS011;22699;51.034;3.730;2023-06-26T01:05:42;9.55;;;3.60;;
36715;SDS011;22699;51.034;3.730;2023-06-26T01:08:10;11.77;;;3.20;;
36715;SDS011;22699;51.034;3.730;2023-06-26T01:10:39;10.43;;;3.70;;
36715;SDS011;22699;51.034;3.730;2023-06-26T01:13:05;7.25;;;3.33;;
36715;SDS011;22699;51.034;3.730;2023-06-26T01:15:30;6.75;;;3.40;;
36715;SDS011;22699;51.034;3.730;2023-06-26T01:17:57;7.90;;;3.70;;
36715;SDS011;22699;51.034;3.730;2023-06-26T01:20:28;7.10;;;2.97;;
36715;SDS011;22699;51.034;3.730;2023-06-26T01:23:14;7.55;;;3.58;;
36715;SDS011;22699;51.034;3.730;2023-06-26T01:28:28;6.80;;;3.20;;
36715;SDS011;22699;51.034;3.730;2023-06-26T01:30:54;7.15;;;3.90;;
36715;SDS011;22699;51.034;3.730;2023-06-26T01:33:21;6.15;;;3.10;;
36715;SDS011;22699;51.034;3.730;2023-06-26T01:35:46;8.52;;;4.03;;
36715;SDS011;22699;51.034;3.730;2023-06-26T01:38:17;7.82;;;3.85;;
36715;SDS011;22699;51.034;3.730;2023-06-26T01:40:44;10.15;;;4.30;;
36715;SDS011;22699;51.034;3.730;2023-06-26T01:43:18;7.68;;;4.10;;
36715;SDS011;22699;51.034;3.730;2023-06-26T01:45:50;8.38;;;3.70;;
36715;SDS011;22699;51.034;3.730;2023-06-26T01:50:48;7.65;;;4.30;;
36715;SDS011;22699;51.034;3.730;2023-06-26T01:53:17;8.90;;;4.00;;
36715;SDS011;22699;51.034;3.730;2023-06-26T01:58:20;11.02;;;4.47;;
36715;SDS011;22699;51.034;3.730;2023-06-26T02:00:48;8.40;;;3.92;;
36715;SDS011;22699;51.034;3.730;2023-06-26T02:03:14;14.73;;;4.90;;
36715;SDS011;22699;51.034;3.730;2023-06-26T02:05:40;11.32;;;4.75;;
36715;SDS011;22699;51.034;3.730;2023-06-26T02:08:07;10.35;;;4.97;;
36715;SDS011;22699;51.034;3.730;2023-06-26T02:10:33;19.15;;;5.93;;
36715;SDS011;22699;51.034;3.730;2023-06-26T02:12:59;12.18;;;5.43;;
36715;SDS011;22699;51.034;3.730;2023-06-26T02:15:25;12.75;;;5.25;;
36715;SDS011;22699;51.034;3.730;2023-06-26T02:17:51;17.17;;;5.22;;
36715;SDS011;22699;51.034;3.730;2023-06-26T02:20:16;15.02;;;5.20;;
36715;SDS011;22699;51.034;3.730;2023-06-26T02:22:42;10.77;;;4.70;;
36715;SDS011;22699;51.034;3.730;2023-06-26T02:25:08;11.35;;;4.47;;
36715;SDS011;22699;51.034;3.730;2023-06-26T02:27:35;12.98;;;4.60;;
36715;SDS011;22699;51.034;3.730;2023-06-26T02:30:00;13.10;;;5.63;;
36715;SDS011;22699;51.034;3.730;2023-06-26T02:32:26;11.45;;;4.78;;
36715;SDS011;22699;51.034;3.730;2023-06-26T02:34:52;13.10;;;4.88;;
36715;SDS011;22699;51.034;3.730;2023-06-26T02:37:18;10.40;;;4.85;;
36715;SDS011;22699;51.034;3.730;2023-06-26T02:39:44;14.45;;;5.35;;
36715;SDS011;22699;51.034;3.730;2023-06-26T02:42:10;19.10;;;5.57;;
36715;SDS011;22699;51.034;3.730;2023-06-26T02:44:36;12.40;;;5.38;;
36715;SDS011;22699;51.034;3.730;2023-06-26T02:47:01;12.80;;;5.05;;
36715;SDS011;22699;51.034;3.730;2023-06-26T02:49:27;13.32;;;4.85;;
36715;SDS011;22699;51.034;3.730;2023-06-26T02:51:52;21.15;;;6.47;;
36715;SDS011;22699;51.034;3.730;2023-06-26T02:54:18;17.77;;;5.20;;
36715;SDS011;22699;51.034;3.730;2023-06-26T02:56:44;15.63;;;4.47;;
36715;SDS011;22699;51.034;3.730;2023-06-26T02:59:09;13.55;;;5.03;;
36715;SDS011;22699;51.034;3.730;2023-06-26T03:01:35;13.70;;;4.90;;
36715;SDS011;22699;51.034;3.730;2023-06-26T03:04:00;14.18;;;5.32;;
36715;SDS011;22699;51.034;3.730;2023-06-26T03:06:27;17.67;;;4.85;;
36715;SDS011;22699;51.034;3.730;2023-06-26T03:08:53;11.93;;;4.82;;
36715;SDS011;22699;51.034;3.730;2023-06-26T03:11:19;16.73;;;5.57;;
36715;SDS011;22699;51.034;3.730;2023-06-26T03:13:45;14.82;;;5.00;;
36715;SDS011;22699;51.034;3.730;2023-06-26T03:16:11;14.10;;;5.47;;
36715;SDS011;22699;51.034;3.730;2023-06-26T03:18:36;16.63;;;4.85;;
36715;SDS011;22699;51.034;3.730;2023-06-26T03:21:03;16.17;;;5.68;;
36715;SDS011;22699;51.034;3.730;2023-06-26T03:23:29;16.38;;;5.63;;
36715;SDS011;22699;51.034;3.730;2023-06-26T03:25:54;16.50;;;4.72;;
36715;SDS011;22699;51.034;3.730;2023-06-26T03:28:20;15.57;;;5.22;;
36715;SDS011;22699;51.034;3.730;2023-06-26T03:30:45;15.23;;;4.72;;
36715;SDS011;22699;51.034;3.730;2023-06-26T03:33:11;14.95;;;5.20;;
36715;SDS011;22699;51.034;3.730;2023-06-26T03:35:37;11.73;;;4.60;;
36715;SDS011;22699;51.034;3.730;2023-06-26T03:38:03;20.02;;;5.03;;
36715;SDS011;22699;51.034;3.730;2023-06-26T03:40:30;12.00;;;4.47;;
36715;SDS011;22699;51.034;3.730;2023-06-26T03:42:55;19.65;;;5.43;;
36715;SDS011;22699;51.034;3.730;2023-06-26T03:45:21;12.82;;;3.88;;
36715;SDS011;22699;51.034;3.730;2023-06-26T03:47:46;12.60;;;5.38;;
36715;SDS011;22699;51.034;3.730;2023-06-26T03:50:14;15.35;;;5.57;;
36715;SDS011;22699;51.034;3.730;2023-06-26T03:52:44;12.60;;;4.50;;
36715;SDS011;22699;51.034;3.730;2023-06-26T03:55:10;12.15;;;4.50;;
36715;SDS011;22699;51.034;3.730;2023-06-26T03:57:35;14.50;;;4.20;;
36715;SDS011;22699;51.034;3.730;2023-06-26T04:00:01;17.50;;;5.55;;
36715;SDS011;22699;51.034;3.730;2023-06-26T04:02:32;20.40;;;4.43;;
36715;SDS011;22699;51.034;3.730;2023-06-26T04:04:57;14.85;;;4.82;;
36715;SDS011;22699;51.034;3.730;2023-06-26T04:07:23;12.52;;;4.07;;
36715;SDS011;22699;51.034;3.730;2023-06-26T04:09:49;16.67;;;4.72;;
36715;SDS011;22699;51.034;3.730;2023-06-26T04:12:15;11.10;;;3.70;;
36715;SDS011;22699;51.034;3.730;2023-06-26T04:14:40;13.23;;;4.43;;
36715;SDS011;22699;51.034;3.730;2023-06-26T04:17:06;15.65;;;4.20;;
36715;SDS011;22699;51.034;3.730;2023-06-26T04:19:32;11.25;;;4.80;;
36715;SDS011;22699;51.034;3.730;2023-06-26T04:21:57;17.27;;;4.47;;
36715;SDS011;22699;51.034;3.730;2023-06-26T04:24:23;15.20;;;4.85;;
36715;SDS011;22699;51.034;3.730;2023-06-26T04:26:48;16.20;;;4.25;;
36715;SDS011;22699;51.034;3.730;2023-06-26T04:29:14;17.75;;;4.00;;
36715;SDS011;22699;51.034;3.730;2023-06-26T04:31:40;15.85;;;4.50;;
36715;SDS011;22699;51.034;3.730;2023-06-26T04:34:05;11.00;;;4.25;;
36715;SDS011;22699;51.034;3.730;2023-06-26T04:36:31;13.00;;;3.50;;
36715;SDS011;22699;51.034;3.730;2023-06-26T04:38:58;14.02;;;3.85;;
36715;SDS011;22699;51.034;3.730;2023-06-26T04:41:25;10.98;;;4.07;;
36715;SDS011;22699;51.034;3.730;2023-06-26T04:43:51;9.85;;;3.30;;
36715;SDS011;22699;51.034;3.730;2023-06-26T04:46:16;11.52;;;4.60;;
36715;SDS011;22699;51.034;3.730;2023-06-26T04:48:42;10.68;;;3.28;;
36715;SDS011;22699;51.034;3.730;2023-06-26T04:51:09;10.55;;;3.38;;
36715;SDS011;22699;51.034;3.730;2023-06-26T04:53:37;11.30;;;3.58;;
36715;SDS011;22699;51.034;3.730;2023-06-26T04:56:04;10.95;;;3.08;;
36715;SDS011;22699;51.034;3.730;2023-06-26T04:58:32;11.77;;;3.97;;
36715;SDS011;22699;51.034;3.730;2023-06-26T05:00:57;9.90;;;3.05;;
36715;SDS011;22699;51.034;3.730;2023-06-26T05:03:26;15.27;;;3.80;;
36715;SDS011;22699;51.034;3.730;2023-06-26T05:05:52;11.27;;;3.88;;
36715;SDS011;22699;51.034;3.730;2023-06-26T05:08:20;10.57;;;3.60;;
36715;SDS011;22699;51.034;3.730;2023-06-26T05:10:52;11.88;;;3.00;;
36715;SDS011;22699;51.034;3.730;2023-06-26T05:13:27;13.02;;;3.75;;
36715;SDS011;22699;51.034;3.730;2023-06-26T05:15:53;9.82;;;3.08;;
36715;SDS011;22699;51.034;3.730;2023-06-26T05:18:20;9.23;;;3.40;;
36715;SDS011;22699;51.034;3.730;2023-06-26T05:20:46;10.27;;;3.75;;
36715;SDS011;22699;51.034;3.730;2023-06-26T05:23:15;12.57;;;3.28;;
36715;SDS011;22699;51.034;3.730;2023-06-26T05:25:55;10.02;;;2.78;;
36715;SDS011;22699;51.034;3.730;2023-06-26T05:28:20;12.38;;;3.25;;
36715;SDS011;22699;51.034;3.730;2023-06-26T05:30:48;15.52;;;3.67;;
36715;SDS011;22699;51.034;3.730;2023-06-26T05:33:27;8.93;;;3.45;;
36715;SDS011;22699;51.034;3.730;2023-06-26T05:35:55;10.23;;;2.95;;
36715;SDS011;22699;51.034;3.730;2023-06-26T05:38:29;10.38;;;3.55;;
36715;SDS011;22699;51.034;3.730;2023-06-26T05:40:55;8.27;;;2.70;;
36715;SDS011;22699;51.034;3.730;2023-06-26T05:43:21;11.60;;;2.97;;
36715;SDS011;22699;51.034;3.730;2023-06-26T05:45:48;9.77;;;3.03;;
36715;SDS011;22699;51.034;3.730;2023-06-26T05:50:54;8.52;;;2.55;;
36715;SDS011;22699;51.034;3.730;2023-06-26T05:56:10;7.38;;;2.35;;
36715;SDS011;22699;51.034;3.730;2023-06-26T05:58:36;9.32;;;2.42;;
36715;SDS011;22699;51.034;3.730;2023-06-26T06:01:01;8.40;;;2.55;;
36715;SDS011;22699;51.034;3.730;2023-06-26T06:03:27;7.00;;;2.92;;
36715;SDS011;22699;51.034;3.730;2023-06-26T06:05:52;9.77;;;2.83;;
36715;SDS011;22699;51.034;3.730;2023-06-26T06:08:18;6.07;;;2.20;;
36715;SDS011;22699;51.034;3.730;2023-06-26T06:10:44;9.60;;;2.30;;
36715;SDS011;22699;51.034;3.730;2023-06-26T06:13:09;12.38;;;2.03;;
36715;SDS011;22699;51.034;3.730;2023-06-26T06:15:35;12.70;;;3.33;;
36715;SDS011;22699;51.034;3.730;2023-06-26T06:18:00;10.00;;;2.90;;
36715;SDS011;22699;51.034;3.730;2023-06-26T06:20:26;9.18;;;2.72;;
36715;SDS011;22699;51.034;3.730;2023-06-26T06:22:52;11.50;;;2.70;;
36715;SDS011;22699;51.034;3.730;2023-06-26T06:25:17;9.48;;;2.55;;
36715;SDS011;22699;51.034;3.730;2023-06-26T06:27:44;7.13;;;2.33;;
36715;SDS011;22699;51.034;3.730;2023-06-26T06:30:12;6.05;;;2.33;;
36715;SDS011;22699;51.034;3.730;2023-06-26T06:32:37;10.25;;;2.90;;
36715;SDS011;22699;51.034;3.730;2023-06-26T06:35:04;8.85;;;2.55;;
36715;SDS011;22699;51.034;3.730;2023-06-26T06:37:34;14.00;;;2.90;;
36715;SDS011;22699;51.034;3.730;2023-06-26T06:40:05;8.38;;;2.53;;
36715;SDS011;22699;51.034;3.730;2023-06-26T06:42:31;4.32;;;1.73;;
36715;SDS011;22699;51.034;3.730;2023-06-26T06:44:58;3.50;;;1.90;;
36715;SDS011;22699;51.034;3.730;2023-06-26T06:47:24;9.93;;;2.47;;
36715;SDS011;22699;51.034;3.730;2023-06-26T06:49:49;15.75;;;2.95;;
36715;SDS011;22699;51.034;3.730;2023-06-26T06:52:15;7.65;;;2.03;;
36715;SDS011;22699;51.034;3.730;2023-06-26T06:54:53;6.13;;;1.98;;
36715;SDS011;22699;51.034;3.730;2023-06-26T06:57:21;9.70;;;1.85;;
36715;SDS011;22699;51.034;3.730;2023-06-26T06:59:47;8.90;;;2.42;;
36715;SDS011;22699;51.034;3.730;2023-06-26T07:02:13;4.88;;;1.25;;
36715;SDS011;22699;51.034;3.730;2023-06-26T07:04:40;6.32;;;1.73;;
36715;SDS011;22699;51.034;3.730;2023-06-26T07:07:06;9.30;;;2.33;;
36715;SDS011;22699;51.034;3.730;2023-06-26T07:09:32;6.13;;;1.70;;
36715;SDS011;22699;51.034;3.730;2023-06-26T07:11:58;5.57;;;1.25;;
36715;SDS011;22699;51.034;3.730;2023-06-26T07:14:23;6.10;;;1.38;;
36715;SDS011;22699;51.034;3.730;2023-06-26T07:16:49;6.45;;;2.25;;
36715;SDS011;22699;51.034;3.730;2023-06-26T07:19:14;10.38;;;1.85;;
36715;SDS011;22699;51.034;3.730;2023-06-26T07:21:40;5.18;;;1.42;;
36715;SDS011;22699;51.034;3.730;2023-06-26T07:24:06;4.70;;;1.15;;
36715;SDS011;22699;51.034;3.730;2023-06-26T07:26:32;8.65;;;1.10;;
36715;SDS011;22699;51.034;3.730;2023-06-26T07:28:58;4.22;;;1.38;;
36715;SDS011;22699;51.034;3.730;2023-06-26T07:31:23;6.32;;;1.20;;
36715;SDS011;22699;51.034;3.730;2023-06-26T07:33:49;6.85;;;1.25;;
36715;SDS011;22699;51.034;3.730;2023-06-26T07:36:14;6.10;;;1.70;;
36715;SDS011;22699;51.034;3.730;2023-06-26T07:38:40;6.47;;;1.52;;
36715;SDS011;22699;51.034;3.730;2023-06-26T07:41:05;6.47;;;1.55;;
36715;SDS011;22699;51.034;3.730;2023-06-26T07:43:31;6.30;;;1.65;;
36715;SDS011;22699;51.034;3.730;2023-06-26T07:45:56;4.65;;;1.45;;
36715;SDS011;22699;51.034;3.730;2023-06-26T07:48:23;7.05;;;1.80;;
36715;SDS011;22699;51.034;3.730;2023-06-26T07:50:50;2.55;;;1.35;;
36715;SDS011;22699;51.034;3.730;2023-06-26T07:53:15;6.72;;;1.38;;
36715;SDS011;22699;51.034;3.730;2023-06-26T07:55:41;3.85;;;1.02;;
36715;SDS011;22699;51.034;3.730;2023-06-26T07:58:08;5.05;;;1.65;;
36715;SDS011;22699;51.034;3.730;2023-06-26T08:00:34;3.45;;;1.15;;
36715;SDS011;22699;51.034;3.730;2023-06-26T08:03:00;6.70;;;2.28;;
36715;SDS011;22699;51.034;3.730;2023-06-26T08:05:26;6.32;;;1.75;;
36715;SDS011;22699;51.034;3.730;2023-06-26T08:07:51;7.70;;;1.75;;
36715;SDS011;22699;51.034;3.730;2023-06-26T08:10:17;5.40;;;1.23;;
36715;SDS011;22699;51.034;3.730;2023-06-26T08:12:42;4.68;;;1.48;;
36715;SDS011;22699;51.034;3.730;2023-06-26T08:15:10;5.38;;;0.98;;
36715;SDS011;22699;51.034;3.730;2023-06-26T08:17:37;6.15;;;1.30;;
36715;SDS011;22699;51.034;3.730;2023-06-26T08:20:03;4.75;;;1.38;;
36715;SDS011;22699;51.034;3.730;2023-06-26T08:22:29;3.08;;;1.10;;
36715;SDS011;22699;51.034;3.730;2023-06-26T08:24:55;4.35;;;1.10;;
36715;SDS011;22699;51.034;3.730;2023-06-26T08:27:21;4.32;;;1.15;;
36715;SDS011;22699;51.034;3.730;2023-06-26T08:29:47;3.38;;;1.33;;
36715;SDS011;22699;51.034;3.730;2023-06-26T08:32:13;4.47;;;1.17;;
36715;SDS011;22699;51.034;3.730;2023-06-26T08:34:38;6.40;;;1.45;;
36715;SDS011;22699;51.034;3.730;2023-06-26T08:37:04;4.05;;;1.20;;
36715;SDS011;22699;51.034;3.730;2023-06-26T08:39:30;9.73;;;1.38;;
36715;SDS011;22699;51.034;3.730;2023-06-26T08:41:55;3.67;;;1.23;;
36715;SDS011;22699;51.034;3.730;2023-06-26T08:44:22;4.80;;;0.90;;
36715;SDS011;22699;51.034;3.730;2023-06-26T08:46:50;4.55;;;1.02;;
36715;SDS011;22699;51.034;3.730;2023-06-26T08:49:30;3.78;;;1.33;;
36715;SDS011;22699;51.034;3.730;2023-06-26T08:52:19;4.32;;;1.50;;
36715;SDS011;22699;51.034;3.730;2023-06-26T08:54:52;4.90;;;1.48;;
36715;SDS011;22699;51.034;3.730;2023-06-26T08:57:23;3.40;;;1.67;;
36715;SDS011;22699;51.034;3.730;2023-06-26T08:59:50;4.38;;;1.13;;
36715;SDS011;22699;51.034;3.730;2023-06-26T09:02:16;4.75;;;1.20;;
36715;SDS011;22699;51.034;3.730;2023-06-26T09:04:43;4.13;;;1.00;;
36715;SDS011;22699;51.034;3.730;2023-06-26T09:07:08;3.65;;;0.93;;
36715;SDS011;22699;51.034;3.730;2023-06-26T09:09:34;5.82;;;1.35;;
36715;SDS011;22699;51.034;3.730;2023-06-26T09:12:03;5.45;;;1.50;;
36715;SDS011;22699;51.034;3.730;2023-06-26T09:14:29;4.20;;;1.10;;
36715;SDS011;22699;51.034;3.730;2023-06-26T09:16:56;4.13;;;1.00;;
36715;SDS011;22699;51.034;3.730;2023-06-26T09:19:21;3.88;;;1.35;;
36715;SDS011;22699;51.034;3.730;2023-06-26T09:21:48;3.03;;;0.90;;
36715;SDS011;22699;51.034;3.730;2023-06-26T09:24:14;4.15;;;1.15;;
36715;SDS011;22699;51.034;3.730;2023-06-26T09:26:41;7.45;;;1.30;;
36715;SDS011;22699;51.034;3.730;2023-06-26T09:29:08;3.63;;;1.50;;
36715;SDS011;22699;51.034;3.730;2023-06-26T09:31:38;2.45;;;0.70;;
36715;SDS011;22699;51.034;3.730;2023-06-26T09:34:04;2.80;;;1.10;;
36715;SDS011;22699;51.034;3.730;2023-06-26T09:36:31;5.25;;;1.08;;
36715;SDS011;22699;51.034;3.730;2023-06-26T09:39:00;3.75;;;1.80;;
36715;SDS011;22699;51.034;3.730;2023-06-26T09:41:32;5.45;;;1.00;;
36715;SDS011;22699;51.034;3.730;2023-06-26T09:44:02;2.78;;;1.10;;
36715;SDS011;22699;51.034;3.730;2023-06-26T09:46:29;4.22;;;1.15;;
36715;SDS011;22699;51.034;3.730;2023-06-26T09:49:04;3.10;;;0.90;;
36715;SDS011;22699;51.034;3.730;2023-06-26T09:51:31;3.70;;;1.10;;
36715;SDS011;22699;51.034;3.730;2023-06-26T09:53:58;5.63;;;1.20;;
36715;SDS011;22699;51.034;3.730;2023-06-26T09:56:29;7.15;;;1.15;;
36715;SDS011;22699;51.034;3.730;2023-06-26T09:58:55;3.88;;;1.08;;
36715;SDS011;22699;51.034;3.730;2023-06-26T10:01:23;6.60;;;1.38;;
36715;SDS011;22699;51.034;3.730;2023-06-26T10:03:49;5.05;;;1.15;;
36715;SDS011;22699;51.034;3.730;2023-06-26T10:06:15;6.70;;;1.40;;
36715;SDS011;22699;51.034;3.730;2023-06-26T10:08:44;5.32;;;1.20;;
36715;SDS011;22699;51.034;3.730;2023-06-26T10:11:14;4.72;;;1.13;;
36715;SDS011;22699;51.034;3.730;2023-06-26T10:13:43;4.55;;;0.90;;
36715;SDS011;22699;51.034;3.730;2023-06-26T10:16:12;3.63;;;1.20;;
36715;SDS011;22699;51.034;3.730;2023-06-26T10:18:41;3.35;;;1.13;;
36715;SDS011;22699;51.034;3.730;2023-06-26T10:21:09;4.65;;;1.33;;
36715;SDS011;22699;51.034;3.730;2023-06-26T10:23:36;3.42;;;0.85;;
36715;SDS011;22699;51.034;3.730;2023-06-26T10:26:06;3.45;;;1.00;;
36715;SDS011;22699;51.034;3.730;2023-06-26T10:28:32;5.20;;;1.17;;
36715;SDS011;22699;51.034;3.730;2023-06-26T10:30:59;4.22;;;1.00;;
36715;SDS011;22699;51.034;3.730;2023-06-26T10:33:27;4.05;;;1.45;;
36715;SDS011;22699;51.034;3.730;2023-06-26T10:35:54;6.82;;;1.25;;
36715;SDS011;22699;51.034;3.730;2023-06-26T10:38:50;7.05;;;2.17;;
36715;SDS011;22699;51.034;3.730;2023-06-26T10:41:37;6.32;;;1.10;;
36715;SDS011;22699;51.034;3.730;2023-06-26T10:44:15;2.28;;;0.80;;
36715;SDS011;22699;51.034;3.730;2023-06-26T10:46:48;6.95;;;2.80;;
36715;SDS011;22699;51.034;3.730;2023-06-26T10:49:15;3.78;;;1.02;;
36715;SDS011;22699;51.034;3.730;2023-06-26T10:51:48;5.75;;;1.27;;
36715;SDS011;22699;51.034;3.730;2023-06-26T10:54:15;3.42;;;1.20;;
36715;SDS011;22699;51.034;3.730;2023-06-26T10:56:48;3.00;;;1.10;;
36715;SDS011;22699;51.034;3.730;2023-06-26T10:59:24;3.92;;;0.90;;
36715;SDS011;22699;51.034;3.730;2023-06-26T11:01:57;4.97;;;1.58;;
36715;SDS011;22699;51.034;3.730;2023-06-26T11:04:40;3.65;;;0.98;;
36715;SDS011;22699;51.034;3.730;2023-06-26T11:07:20;6.18;;;1.15;;
36715;SDS011;22699;51.034;3.730;2023-06-26T11:12:35;3.65;;;1.10;;
36715;SDS011;22699;51.034;3.730;2023-06-26T11:15:10;3.28;;;1.13;;
36715;SDS011;22699;51.034;3.730;2023-06-26T11:17:37;4.47;;;1.13;;
36715;SDS011;22699;51.034;3.730;2023-06-26T11:20:07;4.78;;;1.20;;
36715;SDS011;22699;51.034;3.730;2023-06-26T11:22:36;4.10;;;1.50;;
36715;SDS011;22699;51.034;3.730;2023-06-26T11:25:03;2.35;;;1.30;;
36715;SDS011;22699;51.034;3.730;2023-06-26T11:27:53;5.00;;;1.00;;
36715;SDS011;22699;51.034;3.730;2023-06-26T11:30:24;5.35;;;1.00;;
36715;SDS011;22699;51.034;3.730;2023-06-26T11:32:51;4.28;;;0.90;;
36715;SDS011;22699;51.034;3.730;2023-06-26T11:35:23;3.45;;;1.40;;
36715;SDS011;22699;51.034;3.730;2023-06-26T11:37:59;3.92;;;0.93;;
36715;SDS011;22699;51.034;3.730;2023-06-26T11:40:29;3.40;;;1.10;;
36715;SDS011;22699;51.034;3.730;2023-06-26T11:43:00;5.03;;;1.25;;
36715;SDS011;22699;51.034;3.730;2023-06-26T11:45:33;7.28;;;1.38;;
36715;SDS011;22699;51.034;3.730;2023-06-26T11:47:59;3.90;;;0.80;;
36715;SDS011;22699;51.034;3.730;2023-06-26T11:50:25;5.93;;;1.10;;
36715;SDS011;22699;51.034;3.730;2023-06-26T11:52:57;3.20;;;1.30;;
36715;SDS011;22699;51.034;3.730;2023-06-26T11:55:24;8.43;;;1.45;;
36715;SDS011;22699;51.034;3.730;2023-06-26T11:57:55;6.00;;;1.42;;
36715;SDS011;22699;51.034;3.730;2023-06-26T12:00:23;2.47;;;1.02;;
36715;SDS011;22699;51.034;3.730;2023-06-26T12:02:49;2.80;;;0.90;;
36715;SDS011;22699;51.034;3.730;2023-06-26T12:05:18;6.05;;;1.15;;
36715;SDS011;22699;51.034;3.730;2023-06-26T12:07:46;8.52;;;1.23;;
36715;SDS011;22699;51.034;3.730;2023-06-26T12:10:13;3.85;;;0.82;;
36715;SDS011;22699;51.034;3.730;2023-06-26T12:12:39;2.83;;;0.90;;
36715;SDS011;22699;51.034;3.730;2023-06-26T12:15:06;6.20;;;1.08;;
36715;SDS011;22699;51.034;3.730;2023-06-26T12:17:33;2.38;;;1.00;;
36715;SDS011;22699;51.034;3.730;2023-06-26T12:20:02;5.53;;;1.23;;
36715;SDS011;22699;51.034;3.730;2023-06-26T12:22:33;6.32;;;1.27;;
36715;SDS011;22699;51.034;3.730;2023-06-26T12:25:00;4.95;;;1.40;;
36715;SDS011;22699;51.034;3.730;2023-06-26T12:27:26;5.22;;;1.48;;
36715;SDS011;22699;51.034;3.730;2023-06-26T12:29:53;3.70;;;1.40;;
36715;SDS011;22699;51.034;3.730;2023-06-26T12:32:19;5.65;;;1.30;;
36715;SDS011;22699;51.034;3.730;2023-06-26T12:34:48;3.35;;;1.30;;
36715;SDS011;22699;51.034;3.730;2023-06-26T12:37:15;3.42;;;1.08;;
36715;SDS011;22699;51.034;3.730;2023-06-26T12:39:45;4.30;;;1.10;;
36715;SDS011;22699;51.034;3.730;2023-06-26T12:42:25;6.25;;;1.63;;
36715;SDS011;22699;51.034;3.730;2023-06-26T12:44:52;3.20;;;1.17;;
36715;SDS011;22699;51.034;3.730;2023-06-26T12:47:24;3.15;;;1.10;;
36715;SDS011;22699;51.034;3.730;2023-06-26T12:49:54;2.65;;;1.05;;
36715;SDS011;22699;51.034;3.730;2023-06-26T12:52:20;2.38;;;0.80;;
36715;SDS011;22699;51.034;3.730;2023-06-26T12:54:47;4.88;;;1.20;;
36715;SDS011;22699;51.034;3.730;2023-06-26T12:57:18;7.20;;;1.40;;
36715;SDS011;22699;51.034;3.730;2023-06-26T12:59:43;3.28;;;1.15;;
36715;SDS011;22699;51.034;3.730;2023-06-26T13:02:09;4.85;;;0.98;;
36715;SDS011;22699;51.034;3.730;2023-06-26T13:04:36;3.92;;;1.10;;
36715;SDS011;22699;51.034;3.730;2023-06-26T13:07:04;7.35;;;3.10;;
36715;SDS011;22699;51.034;3.730;2023-06-26T13:09:32;5.03;;;1.25;;
36715;SDS011;22699;51.034;3.730;2023-06-26T13:11:59;3.55;;;1.10;;
36715;SDS011;22699;51.034;3.730;2023-06-26T13:14:25;4.50;;;1.10;;
36715;SDS011;22699;51.034;3.730;2023-06-26T13:16:51;4.45;;;1.45;;
36715;SDS011;22699;51.034;3.730;2023-06-26T13:19:16;4.78;;;1.38;;
36715;SDS011;22699;51.034;3.730;2023-06-26T13:21:43;4.03;;;0.93;;
36715;SDS011;22699;51.034;3.730;2023-06-26T13:24:09;4.95;;;1.17;;
36715;SDS011;22699;51.034;3.730;2023-06-26T13:26:34;4.28;;;1.00;;
36715;SDS011;22699;51.034;3.730;2023-06-26T13:29:00;1.95;;;1.00;;
36715;SDS011;22699;51.034;3.730;2023-06-26T13:31:26;4.22;;;1.23;;
36715;SDS011;22699;51.034;3.730;2023-06-26T13:33:52;5.90;;;1.35;;
36715;SDS011;22699;51.034;3.730;2023-06-26T13:36:17;4.22;;;1.52;;
36715;SDS011;22699;51.034;3.730;2023-06-26T13:38:44;5.22;;;1.85;;
36715;SDS011;22699;51.034;3.730;2023-06-26T13:41:11;3.60;;;1.92;;
36715;SDS011;22699;51.034;3.730;2023-06-26T13:43:37;3.67;;;1.33;;
36715;SDS011;22699;51.034;3.730;2023-06-26T13:46:02;6.13;;;1.98;;
36715;SDS011;22699;51.034;3.730;2023-06-26T13:48:28;3.80;;;1.23;;
36715;SDS011;22699;51.034;3.730;2023-06-26T13:50:54;3.30;;;1.45;;
36715;SDS011;22699;51.034;3.730;2023-06-26T13:53:21;4.00;;;1.00;;
36715;SDS011;22699;51.034;3.730;2023-06-26T13:55:46;5.60;;;1.58;;
36715;SDS011;22699;51.034;3.730;2023-06-26T13:58:12;3.05;;;1.30;;
36715;SDS011;22699;51.034;3.730;2023-06-26T14:00:39;2.08;;;0.90;;
36715;SDS011;22699;51.034;3.730;2023-06-26T14:03:05;3.75;;;1.00;;
36715;SDS011;22699;51.034;3.730;2023-06-26T14:05:34;2.03;;;0.90;;
36715;SDS011;22699;51.034;3.730;2023-06-26T14:08:04;2.77;;;0.80;;
36715;SDS011;22699;51.034;3.730;2023-06-26T14:10:32;4.85;;;0.80;;
36715;SDS011;22699;51.034;3.730;2023-06-26T14:13:01;3.88;;;0.80;;
36715;SDS011;22699;51.034;3.730;2023-06-26T14:15:28;1.95;;;0.80;;
36715;SDS011;22699;51.034;3.730;2023-06-26T14:17:54;4.10;;;0.80;;
36715;SDS011;22699;51.034;3.730;2023-06-26T14:20:22;4.30;;;0.80;;
36715;SDS011;22699;51.034;3.730;2023-06-26T14:22:48;1.67;;;0.70;;
36715;SDS011;22699;51.034;3.730;2023-06-26T14:25:14;4.13;;;0.90;;
36715;SDS011;22699;51.034;3.730;2023-06-26T14:27:42;1.92;;;0.70;;
36715;SDS011;22699;51.034;3.730;2023-06-26T14:30:08;4.45;;;1.10;;
36715;SDS011;22699;51.034;3.730;2023-06-26T14:32:34;3.50;;;0.90;;
36715;SDS011;22699;51.034;3.730;2023-06-26T14:35:00;3.83;;;1.00;;
36715;SDS011;22699;51.034;3.730;2023-06-26T14:37:26;3.40;;;1.05;;
36715;SDS011;22699;51.034;3.730;2023-06-26T14:39:54;3.40;;;1.02;;
36715;SDS011;22699;51.034;3.730;2023-06-26T14:42:20;5.05;;;1.90;;
36715;SDS011;22699;51.034;3.730;2023-06-26T14:44:46;2.72;;;1.40;;
36715;SDS011;22699;51.034;3.730;2023-06-26T14:47:16;6.95;;;2.10;;
36715;SDS011;22699;51.034;3.730;2023-06-26T14:49:42;3.35;;;1.60;;
36715;SDS011;22699;51.034;3.730;2023-06-26T14:52:07;3.70;;;0.93;;
36715;SDS011;22699;51.034;3.730;2023-06-26T14:54:34;4.80;;;1.17;;
36715;SDS011;22699;51.034;3.730;2023-06-26T14:57:02;4.35;;;1.02;;
36715;SDS011;22699;51.034;3.730;2023-06-26T14:59:28;4.80;;;1.10;;
36715;SDS011;22699;51.034;3.730;2023-06-26T15:01:54;3.95;;;1.15;;